createdAt,value
2022-08-02T00:02:29.464Z,93.00
2022-08-02T00:07:35.295Z,93.20
2022-08-02T00:12:43.759Z,93.40
2022-08-02T00:17:48.519Z,93.70
2022-08-02T00:22:52.100Z,93.80
2022-08-02T00:27:56.718Z,93.80
2022-08-02T00:32:59.933Z,93.90
2022-08-02T00:38:04.291Z,93.80
2022-08-02T00:43:10.842Z,93.80
2022-08-02T00:48:15.188Z,94.10
2022-08-02T00:53:18.576Z,94.10
2022-08-02T00:58:23.316Z,94.20
2022-08-02T01:03:26.428Z,94.30
2022-08-02T01:08:31.931Z,94.20
2022-08-02T01:13:36.640Z,94.10
2022-08-02T01:18:45.276Z,94.10
2022-08-02T01:24:02.281Z,94.30
2022-08-02T01:29:14.640Z,94.20
2022-08-02T01:34:22.299Z,94.00
2022-08-02T01:39:32.471Z,94.00
2022-08-02T01:44:41.061Z,94.00
2022-08-02T01:49:47.741Z,93.90
2022-08-02T01:54:58.176Z,93.90
2022-08-02T02:00:03.860Z,93.80
2022-08-02T02:05:08.273Z,93.80
2022-08-02T02:10:15.607Z,93.90
2022-08-02T02:15:20.828Z,94.00
2022-08-02T02:20:24.198Z,94.10
2022-08-02T02:25:35.647Z,94.00
2022-08-02T02:30:46.941Z,94.20
2022-08-02T02:35:53.647Z,94.40
2022-08-02T02:40:59.947Z,94.40
2022-08-02T02:46:06.448Z,94.30
2022-08-02T02:51:13.957Z,94.50
2022-08-02T02:56:18.670Z,94.60
2022-08-02T03:01:53.158Z,94.90
2022-08-02T03:06:54.194Z,94.80
2022-08-02T03:11:58.652Z,94.60
2022-08-02T03:17:03.197Z,94.80
2022-08-02T03:22:06.376Z,94.80
2022-08-02T03:27:09.440Z,94.50
2022-08-02T03:32:14.388Z,94.40
2022-08-02T03:37:18.140Z,94.40
2022-08-02T03:42:22.123Z,94.40
2022-08-02T03:47:27.815Z,94.50
2022-08-02T03:52:32.715Z,94.60
2022-08-02T03:57:38.744Z,94.40
2022-08-02T04:02:43.225Z,94.50
2022-08-02T04:08:02.703Z,94.50
2022-08-02T04:13:09.740Z,94.50
2022-08-02T04:18:15.141Z,94.40
2022-08-02T04:23:19.703Z,94.60
2022-08-02T04:28:27.797Z,94.70
2022-08-02T04:33:35.129Z,94.80
2022-08-02T04:38:38.545Z,94.70
2022-08-02T04:43:41.684Z,94.70
2022-08-02T04:48:46.388Z,94.70
2022-08-02T04:53:49.645Z,94.80
2022-08-02T04:58:52.803Z,94.50
2022-08-02T05:03:57.564Z,94.60
2022-08-02T05:09:00.775Z,94.50
2022-08-02T05:14:03.963Z,94.50
2022-08-02T05:19:08.641Z,94.10
2022-08-02T05:24:11.842Z,94.30
2022-08-02T05:29:15.051Z,93.70
2022-08-02T05:34:19.600Z,93.60
2022-08-02T05:39:22.835Z,93.00
2022-08-02T05:44:26.216Z,92.20
2022-08-02T05:49:30.895Z,91.60
2022-08-02T05:54:48.600Z,91.40
2022-08-02T06:00:09.234Z,90.60
2022-08-02T06:05:15.589Z,90.10
2022-08-02T06:10:22.141Z,88.30
2022-08-02T06:15:25.312Z,88.20
2022-08-02T06:20:35.357Z,89.00
2022-08-02T06:25:49.838Z,89.60
2022-08-02T06:30:55.497Z,89.30
2022-08-02T06:36:05.669Z,88.10
2022-08-02T06:41:14.003Z,88.10
2022-08-02T06:46:37.680Z,87.60
2022-08-02T06:51:42.130Z,85.90
2022-08-02T06:56:46.025Z,84.40
2022-08-02T07:01:49.403Z,84.00
2022-08-02T07:06:55.366Z,84.00
2022-08-02T07:11:58.737Z,83.60
2022-08-02T07:17:01.978Z,82.20
2022-08-02T07:22:06.720Z,82.50
2022-08-02T07:27:12.866Z,82.20
2022-08-02T07:32:17.534Z,80.80
2022-08-02T07:37:35.677Z,80.80
2022-08-02T07:42:46.149Z,81.80
2022-08-02T07:47:49.937Z,79.00
2022-08-02T07:52:57.503Z,78.90
2022-08-02T07:58:01.259Z,80.90
2022-08-02T08:03:04.767Z,81.00
2022-08-02T08:08:15.026Z,79.20
2022-08-02T08:13:20.494Z,79.10
2022-08-02T08:18:23.904Z,77.90
2022-08-02T08:23:28.552Z,76.50
2022-08-02T08:28:31.743Z,77.60
2022-08-02T08:33:35.912Z,77.70
2022-08-02T08:38:40.375Z,76.50
2022-08-02T08:43:43.780Z,76.20
2022-08-02T08:48:49.168Z,74.10
2022-08-02T08:53:58.002Z,75.20
2022-08-02T08:59:01.741Z,76.20
2022-08-02T09:04:05.204Z,74.20
2022-08-02T09:09:09.945Z,73.50
2022-08-02T09:14:13.534Z,73.40
2022-08-02T09:19:21.414Z,71.60
2022-08-02T09:24:25.956Z,71.30
2022-08-02T09:30:11.580Z,70.40
2022-08-02T09:36:05.071Z,68.60
2022-08-02T09:42:00.249Z,69.40
2022-08-02T09:47:37.245Z,69.20
2022-08-02T09:52:44.295Z,67.20
2022-08-02T09:58:05.787Z,66.20
2022-08-02T10:03:35.348Z,66.50
2022-08-02T10:08:45.133Z,65.80
2022-08-02T10:14:34.332Z,64.90
2022-08-02T10:20:01.899Z,64.70
2022-08-02T10:31:10.308Z,65.00
2022-08-02T10:36:28.624Z,64.30
2022-08-02T10:42:04.446Z,63.40
2022-08-02T10:47:26.746Z,63.00
2022-08-02T10:52:40.753Z,63.50
2022-08-02T10:58:26.061Z,62.90
2022-08-02T11:04:10.771Z,61.40
2022-08-02T11:10:02.691Z,60.40
2022-08-02T11:15:30.804Z,60.20
2022-08-02T11:21:07.712Z,59.00
2022-08-02T11:26:43.595Z,58.70
2022-08-02T11:31:48.876Z,58.90
2022-08-02T11:36:53.243Z,58.40
2022-08-02T11:41:58.799Z,58.60
2022-08-02T11:47:04.189Z,57.80
2022-08-02T11:52:11.054Z,57.30
2022-08-02T11:57:19.836Z,56.30
2022-08-02T12:02:28.813Z,54.70
2022-08-02T12:07:34.988Z,54.60
2022-08-02T12:12:50.190Z,54.30
2022-08-02T12:18:14.202Z,53.70
2022-08-02T12:23:17.483Z,52.30
2022-08-02T12:28:22.654Z,51.80
2022-08-02T12:33:28.985Z,51.50
2022-08-02T12:38:32.201Z,51.00
2022-08-02T12:43:44.330Z,49.80
2022-08-02T12:49:16.245Z,49.20
2022-08-02T12:54:17.872Z,48.10
2022-08-02T12:59:38.741Z,47.70
2022-08-02T13:04:49.869Z,47.10
2022-08-02T13:10:02.823Z,43.40
2022-08-02T13:15:12.606Z,46.00
2022-08-02T13:20:32.620Z,46.00
2022-08-02T13:25:36.112Z,45.70
2022-08-02T13:30:39.500Z,46.40
2022-08-02T13:35:45.447Z,45.60
2022-08-02T13:41:06.149Z,46.70
2022-08-02T13:46:09.560Z,46.50
2022-08-02T13:51:14.947Z,46.60
2022-08-02T13:56:18.212Z,45.40
2022-08-02T14:01:21.374Z,45.30
2022-08-02T14:06:25.987Z,45.70
2022-08-02T14:11:30.959Z,47.80
2022-08-02T14:16:34.135Z,49.70
2022-08-02T14:21:46.585Z,50.30
2022-08-02T14:26:51.903Z,50.00
2022-08-02T14:31:55.316Z,50.10
2022-08-02T14:36:59.844Z,50.70
2022-08-02T14:42:03.784Z,50.50
2022-08-02T14:47:07.554Z,50.40
2022-08-02T14:52:13.794Z,50.60
2022-08-02T14:57:17.775Z,50.50
2022-08-02T15:02:21.558Z,50.50
2022-08-02T15:07:26.274Z,50.60
2022-08-02T15:12:29.917Z,50.90
2022-08-02T15:17:33.398Z,51.00
2022-08-02T15:22:38.379Z,50.90
2022-08-02T15:27:42.603Z,51.40
2022-08-02T15:32:52.612Z,51.30
2022-08-02T15:37:58.156Z,51.50
2022-08-02T15:43:01.835Z,51.50
2022-08-02T15:48:05.998Z,51.50
2022-08-02T15:53:10.582Z,51.50
2022-08-02T15:58:16.906Z,51.70
2022-08-02T16:03:21.543Z,51.90
2022-08-02T16:08:26.333Z,51.80
2022-08-02T16:13:53.107Z,52.10
2022-08-02T16:18:57.655Z,52.10
2022-08-02T16:24:03.400Z,52.20
2022-08-02T16:29:06.772Z,52.40
2022-08-02T16:34:10.464Z,52.60
2022-08-02T16:39:15.057Z,52.60
2022-08-02T16:44:18.306Z,52.80
2022-08-02T16:50:05.873Z,52.70
2022-08-02T16:54:58.166Z,52.70
2022-08-02T17:00:01.710Z,53.00
2022-08-02T17:05:12.133Z,53.00
2022-08-02T17:10:19.137Z,53.20
2022-08-02T17:16:08.100Z,53.50
2022-08-02T17:20:47.402Z,53.80
2022-08-02T17:25:54.117Z,54.00
2022-08-02T17:30:58.008Z,54.20
2022-08-02T17:36:02.055Z,54.30
2022-08-02T17:41:07.630Z,54.10
2022-08-02T17:46:18.747Z,54.20
2022-08-02T17:52:14.881Z,54.00
2022-08-02T17:56:50.861Z,54.00
2022-08-02T18:01:57.234Z,54.00
2022-08-02T18:07:09.423Z,54.10
2022-08-02T18:12:31.182Z,54.40
2022-08-02T18:17:34.952Z,54.50
2022-08-02T18:22:39.756Z,54.70
2022-08-02T18:27:48.063Z,54.80
2022-08-02T18:33:54.315Z,55.00
2022-08-02T18:38:15.375Z,55.00
2022-08-02T18:43:25.172Z,55.10
2022-08-02T18:48:30.687Z,55.20
2022-08-02T18:53:41.284Z,55.20
2022-08-02T18:58:47.422Z,55.40
2022-08-02T19:03:50.977Z,55.60
2022-08-02T19:09:04.924Z,55.70
2022-08-02T19:14:11.723Z,55.60
2022-08-02T19:19:19.488Z,55.50
2022-08-02T19:24:23.240Z,55.90
2022-08-02T19:29:42.850Z,55.70
2022-08-02T19:34:52.359Z,56.40
2022-08-02T19:39:55.957Z,56.70
2022-08-02T19:45:04.519Z,56.70
2022-08-02T19:50:12.793Z,56.60
2022-08-02T19:56:00.796Z,56.70
2022-08-02T20:00:42.964Z,56.60
2022-08-02T20:05:48.037Z,57.10
2022-08-02T20:10:51.596Z,57.80
2022-08-02T20:15:57.635Z,58.00
2022-08-02T20:21:01.786Z,58.30
2022-08-02T20:26:06.698Z,58.30
2022-08-02T20:31:13.952Z,58.60
2022-08-02T20:36:18.996Z,58.80
2022-08-02T20:41:22.721Z,59.00
2022-08-02T20:46:27.876Z,59.50
2022-08-02T20:51:33.777Z,59.90
2022-08-02T20:56:37.900Z,60.20
2022-08-02T21:01:56.801Z,60.80
2022-08-02T21:07:01.336Z,61.20
2022-08-02T21:12:12.515Z,61.60
2022-08-02T21:17:17.969Z,62.00
2022-08-02T21:22:27.650Z,62.30
2022-08-02T21:27:53.529Z,62.80
2022-08-02T21:32:57.321Z,63.20
2022-08-02T21:38:01.248Z,63.60
2022-08-02T21:43:04.915Z,64.40
2022-08-02T21:48:13.936Z,65.40
2022-08-02T21:53:18.919Z,65.70
2022-08-02T21:58:41.238Z,65.90
2022-08-02T22:03:55.644Z,66.20
2022-08-02T22:08:59.337Z,66.40
2022-08-02T22:14:03.041Z,66.70
2022-08-02T22:19:07.658Z,67.20
2022-08-02T22:24:13.011Z,67.50
2022-08-02T22:29:22.648Z,67.80
2022-08-02T22:34:51.377Z,67.90
2022-08-02T22:40:06.018Z,68.40
2022-08-02T22:45:13.291Z,68.60
2022-08-02T22:50:19.169Z,68.70
2022-08-02T22:55:23.246Z,68.90
2022-08-02T23:00:27.907Z,69.00
2022-08-02T23:05:33.076Z,69.40
2022-08-02T23:10:36.436Z,69.80
2022-08-02T23:15:54.490Z,70.80
2022-08-02T23:20:59.155Z,70.30
2022-08-02T23:26:02.639Z,70.80
2022-08-02T23:31:38.125Z,71.10
2022-08-02T23:36:43.037Z,71.50
2022-08-02T23:41:49.300Z,71.90
2022-08-02T23:47:01.567Z,72.20
2022-08-02T23:52:06.684Z,72.70
2022-08-02T23:57:20.157Z,73.00
